sensor_id;sensor_type;location;lat;lon;timestamp;pressure;altitude;pressure_sealevel;temperature
75428;BMP280;64008;55.612;37.698;2023-05-19T00:01:27;100292.25;;;22.07
75428;BMP280;64008;55.612;37.698;2023-05-19T00:03:57;100292.63;;;22.34
75428;BMP280;64008;55.612;37.698;2023-05-19T00:06:28;100291.13;;;21.95
75428;BMP280;64008;55.612;37.698;2023-05-19T00:08:58;100288.25;;;22.05
75428;BMP280;64008;55.612;37.698;2023-05-19T00:13:52;100289.16;;;22.61
75428;BMP280;64008;55.612;37.698;2023-05-19T00:16:18;100306.94;;;22.62
75428;BMP280;64008;55.612;37.698;2023-05-19T00:18:44;100295.75;;;22.41
75428;BMP280;64008;55.612;37.698;2023-05-19T00:23:37;100303.44;;;22.15
75428;BMP280;64008;55.612;37.698;2023-05-19T00:26:02;100302.94;;;22.13
75428;BMP280;64008;55.612;37.698;2023-05-19T00:30:53;100311.69;;;22.37
75428;BMP280;64008;55.612;37.698;2023-05-19T00:33:19;100302.63;;;22.47
75428;BMP280;64008;55.612;37.698;2023-05-19T00:35:45;100308.50;;;22.49
75428;BMP280;64008;55.612;37.698;2023-05-19T00:38:10;100315.31;;;22.60
75428;BMP280;64008;55.612;37.698;2023-05-19T00:40:36;100322.69;;;22.68
75428;BMP280;64008;55.612;37.698;2023-05-19T00:43:01;100312.13;;;22.72
75428;BMP280;64008;55.612;37.698;2023-05-19T00:45:29;100318.53;;;22.76
75428;BMP280;64008;55.612;37.698;2023-05-19T00:47:55;100316.47;;;22.26
75428;BMP280;64008;55.612;37.698;2023-05-19T00:50:21;100314.09;;;22.52
75428;BMP280;64008;55.612;37.698;2023-05-19T00:52:49;100323.66;;;22.45
75428;BMP280;64008;55.612;37.698;2023-05-19T00:55:14;100319.22;;;22.35
75428;BMP280;64008;55.612;37.698;2023-05-19T01:00:06;100326.41;;;22.26
75428;BMP280;64008;55.612;37.698;2023-05-19T01:02:32;100333.44;;;22.41
75428;BMP280;64008;55.612;37.698;2023-05-19T01:04:58;100331.38;;;22.19
75428;BMP280;64008;55.612;37.698;2023-05-19T01:09:50;100331.94;;;22.02
75428;BMP280;64008;55.612;37.698;2023-05-19T01:12:15;100331.13;;;22.01
75428;BMP280;64008;55.612;37.698;2023-05-19T01:14:41;100340.56;;;22.32
75428;BMP280;64008;55.612;37.698;2023-05-19T01:17:23;100337.09;;;21.98
75428;BMP280;64008;55.612;37.698;2023-05-19T01:20:10;100335.16;;;22.18
75428;BMP280;64008;55.612;37.698;2023-05-19T01:31:16;100350.38;;;22.41
75428;BMP280;64008;55.612;37.698;2023-05-19T01:33:43;100344.94;;;22.14
75428;BMP280;64008;55.612;37.698;2023-05-19T01:38:37;100338.63;;;22.51
75428;BMP280;64008;55.612;37.698;2023-05-19T01:41:03;100343.03;;;22.61
75428;BMP280;64008;55.612;37.698;2023-05-19T01:43:30;100356.16;;;22.35
75428;BMP280;64008;55.612;37.698;2023-05-19T01:45:56;100346.22;;;22.49
75428;BMP280;64008;55.612;37.698;2023-05-19T01:48:23;100362.72;;;22.28
75428;BMP280;64008;55.612;37.698;2023-05-19T01:53:15;100353.47;;;22.16
75428;BMP280;64008;55.612;37.698;2023-05-19T01:55:49;100357.63;;;22.08
75428;BMP280;64008;55.612;37.698;2023-05-19T02:12:00;100381.75;;;21.37
75428;BMP280;64008;55.612;37.698;2023-05-19T02:17:03;100370.22;;;21.13
75428;BMP280;64008;55.612;37.698;2023-05-19T02:19:37;100365.56;;;21.43
75428;BMP280;64008;55.612;37.698;2023-05-19T02:22:03;100366.19;;;21.34
75428;BMP280;64008;55.612;37.698;2023-05-19T02:24:29;100367.84;;;21.06
75428;BMP280;64008;55.612;37.698;2023-05-19T02:26:55;100380.16;;;21.12
75428;BMP280;64008;55.612;37.698;2023-05-19T02:29:20;100381.41;;;20.96
75428;BMP280;64008;55.612;37.698;2023-05-19T02:31:46;100370.78;;;21.34
75428;BMP280;64008;55.612;37.698;2023-05-19T02:34:12;100387.03;;;21.24
75428;BMP280;64008;55.612;37.698;2023-05-19T02:36:39;100390.50;;;21.67
75428;BMP280;64008;55.612;37.698;2023-05-19T02:39:09;100399.47;;;21.62
75428;BMP280;64008;55.612;37.698;2023-05-19T02:41:35;100387.25;;;21.27
75428;BMP280;64008;55.612;37.698;2023-05-19T02:44:01;100395.38;;;21.46
75428;BMP280;64008;55.612;37.698;2023-05-19T02:46:26;100398.88;;;20.93
75428;BMP280;64008;55.612;37.698;2023-05-19T02:53:43;100409.41;;;20.90
75428;BMP280;64008;55.612;37.698;2023-05-19T02:56:08;100410.88;;;21.01
75428;BMP280;64008;55.612;37.698;2023-05-19T02:58:33;100416.31;;;21.25
75428;BMP280;64008;55.612;37.698;2023-05-19T03:00:59;100405.56;;;21.25
75428;BMP280;64008;55.612;37.698;2023-05-19T03:03:25;100411.47;;;21.22
75428;BMP280;64008;55.612;37.698;2023-05-19T03:05:51;100411.69;;;21.02
75428;BMP280;64008;55.612;37.698;2023-05-19T03:08:18;100406.09;;;20.98
75428;BMP280;64008;55.612;37.698;2023-05-19T03:10:45;100429.03;;;20.85
75428;BMP280;64008;55.612;37.698;2023-05-19T03:13:11;100422.63;;;20.81
75428;BMP280;64008;55.612;37.698;2023-05-19T03:15:36;100425.91;;;20.39
75428;BMP280;64008;55.612;37.698;2023-05-19T03:18:02;100429.22;;;20.65
75428;BMP280;64008;55.612;37.698;2023-05-19T03:20:27;100416.53;;;21.29
75428;BMP280;64008;55.612;37.698;2023-05-19T03:22:55;100427.06;;;21.25
75428;BMP280;64008;55.612;37.698;2023-05-19T03:25:21;100426.31;;;20.90
75428;BMP280;64008;55.612;37.698;2023-05-19T03:27:46;100432.47;;;20.91
75428;BMP280;64008;55.612;37.698;2023-05-19T03:30:12;100441.63;;;20.90
75428;BMP280;64008;55.612;37.698;2023-05-19T03:32:38;100452.13;;;20.52
75428;BMP280;64008;55.612;37.698;2023-05-19T03:35:04;100446.19;;;20.55
75428;BMP280;64008;55.612;37.698;2023-05-19T03:37:30;100442.38;;;20.66
75428;BMP280;64008;55.612;37.698;2023-05-19T03:39:58;100453.00;;;20.42
75428;BMP280;64008;55.612;37.698;2023-05-19T03:42:23;100455.78;;;20.27
75428;BMP280;64008;55.612;37.698;2023-05-19T03:44:49;100458.00;;;20.15
75428;BMP280;64008;55.612;37.698;2023-05-19T03:47:14;100459.72;;;20.45
75428;BMP280;64008;55.612;37.698;2023-05-19T03:49:40;100457.25;;;20.48
75428;BMP280;64008;55.612;37.698;2023-05-19T03:57:39;100481.59;;;20.96
75428;BMP280;64008;55.612;37.698;2023-05-19T04:19:29;100483.75;;;20.65
75428;BMP280;64008;55.612;37.698;2023-05-19T04:36:32;100465.94;;;21.09
75428;BMP280;64008;55.612;37.698;2023-05-19T04:43:51;100486.22;;;20.91
75428;BMP280;64008;55.612;37.698;2023-05-19T04:48:42;100490.88;;;20.80
75428;BMP280;64008;55.612;37.698;2023-05-19T04:51:09;100491.59;;;20.91
75428;BMP280;64008;55.612;37.698;2023-05-19T04:56:00;100494.59;;;21.13
75428;BMP280;64008;55.612;37.698;2023-05-19T04:58:26;100492.63;;;20.95
75428;BMP280;64008;55.612;37.698;2023-05-19T05:08:12;100495.47;;;20.35
75428;BMP280;64008;55.612;37.698;2023-05-19T05:10:39;100498.84;;;20.51
75428;BMP280;64008;55.612;37.698;2023-05-19T05:15:31;100505.75;;;20.18
75428;BMP280;64008;55.612;37.698;2023-05-19T05:22:48;100507.22;;;20.49
75428;BMP280;64008;55.612;37.698;2023-05-19T05:25:14;100497.25;;;20.84
75428;BMP280;64008;55.612;37.698;2023-05-19T05:27:40;100512.47;;;20.60
75428;BMP280;64008;55.612;37.698;2023-05-19T05:30:06;100510.63;;;20.55
75428;BMP280;64008;55.612;37.698;2023-05-19T05:39:48;100516.88;;;20.45
75428;BMP280;64008;55.612;37.698;2023-05-19T05:44:42;100528.84;;;20.08
75428;BMP280;64008;55.612;37.698;2023-05-19T05:47:07;100525.72;;;19.76
75428;BMP280;64008;55.612;37.698;2023-05-19T05:52:02;100521.88;;;20.07
75428;BMP280;64008;55.612;37.698;2023-05-19T05:54:28;100545.47;;;20.16
75428;BMP280;64008;55.612;37.698;2023-05-19T06:06:35;100540.81;;;20.81
75428;BMP280;64008;55.612;37.698;2023-05-19T06:18:44;100539.19;;;21.49
75428;BMP280;64008;55.612;37.698;2023-05-19T06:21:10;100547.91;;;21.89
75428;BMP280;64008;55.612;37.698;2023-05-19T06:23:40;100532.56;;;22.13
75428;BMP280;64008;55.612;37.698;2023-05-19T06:26:06;100539.34;;;22.29
75428;BMP280;64008;55.612;37.698;2023-05-19T06:28:32;100532.72;;;22.41
75428;BMP280;64008;55.612;37.698;2023-05-19T06:30:58;100537.72;;;22.47
75428;BMP280;64008;55.612;37.698;2023-05-19T06:35:49;100532.09;;;22.63
75428;BMP280;64008;55.612;37.698;2023-05-19T06:40:40;100531.22;;;22.67
75428;BMP280;64008;55.612;37.698;2023-05-19T06:43:06;100539.22;;;22.72
75428;BMP280;64008;55.612;37.698;2023-05-19T06:45:31;100534.88;;;22.77
75428;BMP280;64008;55.612;37.698;2023-05-19T06:47:57;100538.06;;;22.79
75428;BMP280;64008;55.612;37.698;2023-05-19T06:50:23;100543.69;;;22.82
75428;BMP280;64008;55.612;37.698;2023-05-19T06:52:49;100553.06;;;22.85
75428;BMP280;64008;55.612;37.698;2023-05-19T06:55:15;100543.88;;;22.86
75428;BMP280;64008;55.612;37.698;2023-05-19T06:57:40;100548.47;;;22.85
75428;BMP280;64008;55.612;37.698;2023-05-19T07:00:06;100532.31;;;22.85
75428;BMP280;64008;55.612;37.698;2023-05-19T07:02:37;100538.69;;;22.89
75428;BMP280;64008;55.612;37.698;2023-05-19T07:09:53;100548.13;;;22.92
75428;BMP280;64008;55.612;37.698;2023-05-19T07:12:19;100541.63;;;22.93
75428;BMP280;64008;55.612;37.698;2023-05-19T07:17:09;100549.75;;;23.07
75428;BMP280;64008;55.612;37.698;2023-05-19T07:19:35;100548.34;;;23.09
75428;BMP280;64008;55.612;37.698;2023-05-19T07:26:52;100553.00;;;23.23
75428;BMP280;64008;55.612;37.698;2023-05-19T07:29:17;100553.97;;;23.27
75428;BMP280;64008;55.612;37.698;2023-05-19T07:31:43;100550.97;;;23.28
75428;BMP280;64008;55.612;37.698;2023-05-19T07:36:34;100556.56;;;23.32
75428;BMP280;64008;55.612;37.698;2023-05-19T07:39:00;100549.00;;;23.34
75428;BMP280;64008;55.612;37.698;2023-05-19T07:41:25;100552.19;;;23.36
75428;BMP280;64008;55.612;37.698;2023-05-19T07:46:16;100558.81;;;23.44
75428;BMP280;64008;55.612;37.698;2023-05-19T07:51:07;100560.63;;;23.48
75428;BMP280;64008;55.612;37.698;2023-05-19T07:53:36;100557.63;;;23.50
75428;BMP280;64008;55.612;37.698;2023-05-19T07:56:02;100556.22;;;23.52
75428;BMP280;64008;55.612;37.698;2023-05-19T07:58:28;100556.63;;;23.59
75428;BMP280;64008;55.612;37.698;2023-05-19T08:03:21;100562.22;;;23.63
75428;BMP280;64008;55.612;37.698;2023-05-19T08:05:47;100560.31;;;23.63
75428;BMP280;64008;55.612;37.698;2023-05-19T08:08:13;100559.25;;;23.65
75428;BMP280;64008;55.612;37.698;2023-05-19T08:10:41;100544.59;;;23.66
75428;BMP280;64008;55.612;37.698;2023-05-19T08:13:06;100545.44;;;23.66
75428;BMP280;64008;55.612;37.698;2023-05-19T08:15:32;100562.81;;;23.60
75428;BMP280;64008;55.612;37.698;2023-05-19T08:17:57;100555.00;;;23.45
75428;BMP280;64008;55.612;37.698;2023-05-19T08:20:23;100560.00;;;23.37
75428;BMP280;64008;55.612;37.698;2023-05-19T08:22:48;100558.47;;;23.31
75428;BMP280;64008;55.612;37.698;2023-05-19T08:25:14;100546.78;;;23.22
75428;BMP280;64008;55.612;37.698;2023-05-19T08:27:39;100550.19;;;23.28
75428;BMP280;64008;55.612;37.698;2023-05-19T08:30:05;100543.63;;;23.34
75428;BMP280;64008;55.612;37.698;2023-05-19T08:32:31;100558.38;;;23.36
75428;BMP280;64008;55.612;37.698;2023-05-19T08:34:57;100560.19;;;23.41
75428;BMP280;64008;55.612;37.698;2023-05-19T08:37:22;100552.81;;;23.47
75428;BMP280;64008;55.612;37.698;2023-05-19T08:39:48;100566.63;;;23.45
75428;BMP280;64008;55.612;37.698;2023-05-19T08:42:13;100562.22;;;23.49
75428;BMP280;64008;55.612;37.698;2023-05-19T08:44:39;100561.41;;;23.49
75428;BMP280;64008;55.612;37.698;2023-05-19T08:47:06;100569.00;;;23.47
75428;BMP280;64008;55.612;37.698;2023-05-19T08:49:43;100557.97;;;23.43
75428;BMP280;64008;55.612;37.698;2023-05-19T08:52:21;100563.19;;;23.39
75428;BMP280;64008;55.612;37.698;2023-05-19T08:55:12;100564.06;;;23.35
75428;BMP280;64008;55.612;37.698;2023-05-19T08:57:40;100556.56;;;23.32
75428;BMP280;64008;55.612;37.698;2023-05-19T09:00:06;100555.41;;;23.38
75428;BMP280;64008;55.612;37.698;2023-05-19T09:02:38;100564.81;;;23.40
75428;BMP280;64008;55.612;37.698;2023-05-19T09:05:05;100553.72;;;23.42
75428;BMP280;64008;55.612;37.698;2023-05-19T09:07:31;100561.22;;;23.45
75428;BMP280;64008;55.612;37.698;2023-05-19T09:12:25;100562.22;;;23.49
75428;BMP280;64008;55.612;37.698;2023-05-19T09:14:51;100552.44;;;23.53
75428;BMP280;64008;55.612;37.698;2023-05-19T09:17:17;100557.22;;;23.56
75428;BMP280;64008;55.612;37.698;2023-05-19T09:19:45;100544.91;;;23.64
75428;BMP280;64008;55.612;37.698;2023-05-19T09:22:13;100543.81;;;23.65
75428;BMP280;64008;55.612;37.698;2023-05-19T09:24:40;100533.22;;;23.69
75428;BMP280;64008;55.612;37.698;2023-05-19T09:27:05;100533.66;;;23.76
75428;BMP280;64008;55.612;37.698;2023-05-19T09:29:31;100540.81;;;23.80
75428;BMP280;64008;55.612;37.698;2023-05-19T09:31:56;100542.22;;;23.78
75428;BMP280;64008;55.612;37.698;2023-05-19T09:34:28;100532.81;;;23.75
75428;BMP280;64008;55.612;37.698;2023-05-19T09:36:54;100536.22;;;23.81
75428;BMP280;64008;55.612;37.698;2023-05-19T09:39:21;100535.81;;;23.88
75428;BMP280;64008;55.612;37.698;2023-05-19T09:41:54;100523.63;;;23.76
75428;BMP280;64008;55.612;37.698;2023-05-19T09:44:26;100524.03;;;23.83
75428;BMP280;64008;55.612;37.698;2023-05-19T09:46:56;100531.19;;;23.88
75428;BMP280;64008;55.612;37.698;2023-05-19T09:49:24;100534.44;;;23.90
75428;BMP280;64008;55.612;37.698;2023-05-19T09:54:19;100533.22;;;23.96
75428;BMP280;64008;55.612;37.698;2023-05-19T09:56:50;100529.41;;;23.97
75428;BMP280;64008;55.612;37.698;2023-05-19T09:59:16;100531.19;;;24.02
75428;BMP280;64008;55.612;37.698;2023-05-19T10:01:43;100527.59;;;24.06
75428;BMP280;64008;55.612;37.698;2023-05-19T10:06:38;100523.16;;;24.11
75428;BMP280;64008;55.612;37.698;2023-05-19T10:09:03;100524.16;;;24.15
75428;BMP280;64008;55.612;37.698;2023-05-19T10:11:29;100534.38;;;24.18
75428;BMP280;64008;55.612;37.698;2023-05-19T10:13:55;100526.75;;;24.20
75428;BMP280;64008;55.612;37.698;2023-05-19T10:16:21;100518.53;;;24.25
75428;BMP280;64008;55.612;37.698;2023-05-19T10:21:16;100521.75;;;24.27
75428;BMP280;64008;55.612;37.698;2023-05-19T10:23:41;100520.50;;;24.33
75428;BMP280;64008;55.612;37.698;2023-05-19T10:26:08;100533.31;;;24.27
75428;BMP280;64008;55.612;37.698;2023-05-19T10:28:37;100523.50;;;24.31
75428;BMP280;64008;55.612;37.698;2023-05-19T10:33:55;100527.19;;;24.36
75428;BMP280;64008;55.612;37.698;2023-05-19T10:36:45;100523.09;;;24.38
75428;BMP280;64008;55.612;37.698;2023-05-19T10:39:16;100529.47;;;24.42
75428;BMP280;64008;55.612;37.698;2023-05-19T10:45:08;100525.56;;;24.48
75428;BMP280;64008;55.612;37.698;2023-05-19T10:47:40;100532.25;;;24.51
75428;BMP280;64008;55.612;37.698;2023-05-19T10:50:08;100526.88;;;24.51
75428;BMP280;64008;55.612;37.698;2023-05-19T10:52:38;100516.84;;;24.51
75428;BMP280;64008;55.612;37.698;2023-05-19T10:55:08;100526.88;;;24.51
75428;BMP280;64008;55.612;37.698;2023-05-19T10:57:52;100525.25;;;24.50
75428;BMP280;64008;55.612;37.698;2023-05-19T11:00:29;100532.25;;;24.51
75428;BMP280;64008;55.612;37.698;2023-05-19T11:03:14;100532.25;;;24.51
75428;BMP280;64008;55.612;37.698;2023-05-19T11:05:40;100522.25;;;24.51
75428;BMP280;64008;55.612;37.698;2023-05-19T11:08:10;100521.34;;;24.56
75428;BMP280;64008;55.612;37.698;2023-05-19T11:10:36;100524.81;;;24.57
75428;BMP280;64008;55.612;37.698;2023-05-19T11:13:03;100529.59;;;24.60
75428;BMP280;64008;55.612;37.698;2023-05-19T11:15:34;100529.31;;;24.61
75428;BMP280;64008;55.612;37.698;2023-05-19T11:18:01;100507.97;;;24.60
75428;BMP280;64008;55.612;37.698;2023-05-19T11:20:28;100509.59;;;24.61
75428;BMP280;64008;55.612;37.698;2023-05-19T11:23:08;100533.41;;;24.59
75428;BMP280;64008;55.612;37.698;2023-05-19T11:25:43;100533.41;;;24.59
75428;BMP280;64008;55.612;37.698;2023-05-19T11:28:14;100524.81;;;24.57
75428;BMP280;64008;55.612;37.698;2023-05-19T11:30:41;100530.22;;;24.57
75428;BMP280;64008;55.612;37.698;2023-05-19T11:35:33;100519.41;;;24.57
75428;BMP280;64008;55.612;37.698;2023-05-19T11:38:00;100523.03;;;24.52
75428;BMP280;64008;55.612;37.698;2023-05-19T11:40:27;100528.13;;;24.53
75428;BMP280;64008;55.612;37.698;2023-05-19T11:42:53;100525.25;;;24.50
75428;BMP280;64008;55.612;37.698;2023-05-19T11:45:26;100528.28;;;24.48
75428;BMP280;64008;55.612;37.698;2023-05-19T11:47:54;100535.25;;;24.49
75428;BMP280;64008;55.612;37.698;2023-05-19T11:50:21;100532.75;;;24.53
75428;BMP280;64008;55.612;37.698;2023-05-19T11:52:47;100527.03;;;24.54
75428;BMP280;64008;55.612;37.698;2023-05-19T11:58:02;100516.22;;;24.54
75428;BMP280;64008;55.612;37.698;2023-05-19T12:00:29;100521.03;;;24.58
75428;BMP280;64008;55.612;37.698;2023-05-19T12:05:23;100536.63;;;24.61
75428;BMP280;64008;55.612;37.698;2023-05-19T12:07:49;100526.59;;;24.61
75428;BMP280;64008;55.612;37.698;2023-05-19T12:10:17;100532.00;;;24.61
75428;BMP280;64008;55.612;37.698;2023-05-19T12:12:44;100536.00;;;24.64
75428;BMP280;64008;55.612;37.698;2023-05-19T12:20:01;100523.59;;;24.63
75428;BMP280;64008;55.612;37.698;2023-05-19T12:22:29;100525.19;;;24.64
75428;BMP280;64008;55.612;37.698;2023-05-19T12:24:55;100538.22;;;24.62
75428;BMP280;64008;55.612;37.698;2023-05-19T12:27:24;100538.22;;;24.62
75428;BMP280;64008;55.612;37.698;2023-05-19T12:29:54;100539.81;;;24.63
75428;BMP280;64008;55.612;37.698;2023-05-19T12:32:24;100517.59;;;24.66
75428;BMP280;64008;55.612;37.698;2023-05-19T12:37:16;100531.88;;;24.66
75428;BMP280;64008;55.612;37.698;2023-05-19T12:44:52;100535.34;;;24.67
75428;BMP280;64008;55.612;37.698;2023-05-19T12:47:19;100529.94;;;24.67
75428;BMP280;64008;55.612;37.698;2023-05-19T12:49:54;100530.78;;;24.67
75428;BMP280;64008;55.612;37.698;2023-05-19T12:52:21;100531.38;;;24.64
75428;BMP280;64008;55.612;37.698;2023-05-19T12:54:48;100527.78;;;24.69
75428;BMP280;64008;55.612;37.698;2023-05-19T12:57:17;100532.34;;;24.68
75428;BMP280;64008;55.612;37.698;2023-05-19T12:59:45;100526.34;;;24.71
75428;BMP280;64008;55.612;37.698;2023-05-19T13:02:11;100530.94;;;24.71
75428;BMP280;64008;55.612;37.698;2023-05-19T13:04:37;100534.16;;;24.73
75428;BMP280;64008;55.612;37.698;2023-05-19T13:07:02;100516.34;;;24.72
75428;BMP280;64008;55.612;37.698;2023-05-19T13:09:28;100532.56;;;24.72
75428;BMP280;64008;55.612;37.698;2023-05-19T13:11:53;100539.56;;;24.73
75428;BMP280;64008;55.612;37.698;2023-05-19T13:14:21;100537.34;;;24.75
75428;BMP280;64008;55.612;37.698;2023-05-19T13:16:46;100535.75;;;24.74
75428;BMP280;64008;55.612;37.698;2023-05-19T13:19:13;100534.34;;;24.76
75428;BMP280;64008;55.612;37.698;2023-05-19T13:24:04;100529.75;;;24.77
75428;BMP280;64008;55.612;37.698;2023-05-19T13:26:30;100527.50;;;24.79
75428;BMP280;64008;55.612;37.698;2023-05-19T13:28:55;100531.63;;;24.76
75428;BMP280;64008;55.612;37.698;2023-05-19T13:33:46;100528.50;;;24.83
75428;BMP280;64008;55.612;37.698;2023-05-19T13:36:12;100529.59;;;24.82
75428;BMP280;64008;55.612;37.698;2023-05-19T13:38:37;100532.47;;;24.86
75428;BMP280;64008;55.612;37.698;2023-05-19T13:41:04;100534.09;;;24.87
75428;BMP280;64008;55.612;37.698;2023-05-19T13:43:29;100531.06;;;24.88
75428;BMP280;64008;55.612;37.698;2023-05-19T13:45:56;100539.50;;;24.87
75428;BMP280;64008;55.612;37.698;2023-05-19T13:48:21;100532.31;;;24.82
75428;BMP280;64008;55.612;37.698;2023-05-19T13:50:47;100540.72;;;24.81
75428;BMP280;64008;55.612;37.698;2023-05-19T13:53:12;100539.13;;;24.80
75428;BMP280;64008;55.612;37.698;2023-05-19T13:55:38;100531.31;;;24.78
75428;BMP280;64008;55.612;37.698;2023-05-19T13:58:03;100534.34;;;24.76
75428;BMP280;64008;55.612;37.698;2023-05-19T14:00:30;100529.41;;;24.79
75428;BMP280;64008;55.612;37.698;2023-05-19T14:02:55;100536.63;;;24.83
75428;BMP280;64008;55.612;37.698;2023-05-19T14:05:21;100521.97;;;24.84
75428;BMP280;64008;55.612;37.698;2023-05-19T14:07:47;100523.28;;;24.87
75428;BMP280;64008;55.612;37.698;2023-05-19T14:10:12;100526.44;;;24.89
75428;BMP280;64008;55.612;37.698;2023-05-19T14:12:38;100541.28;;;24.91
75428;BMP280;64008;55.612;37.698;2023-05-19T14:15:04;100524.44;;;24.94
75428;BMP280;64008;55.612;37.698;2023-05-19T14:17:30;100529.84;;;24.94
75428;BMP280;64008;55.612;37.698;2023-05-19T14:19:56;100529.03;;;24.94
75428;BMP280;64008;55.612;37.698;2023-05-19T14:22:22;100536.06;;;24.95
75428;BMP280;64008;55.612;37.698;2023-05-19T14:24:47;100536.06;;;24.95
75428;BMP280;64008;55.612;37.698;2023-05-19T14:27:13;100528.22;;;24.93
75428;BMP280;64008;55.612;37.698;2023-05-19T14:29:38;100532.03;;;24.92
75428;BMP280;64008;55.612;37.698;2023-05-19T14:32:04;100535.88;;;24.91
75428;BMP280;64008;55.612;37.698;2023-05-19T14:34:30;100537.63;;;24.96
75428;BMP280;64008;55.612;37.698;2023-05-19T14:36:56;100529.53;;;24.96
75428;BMP280;64008;55.612;37.698;2023-05-19T14:39:21;100535.44;;;24.98
75428;BMP280;64008;55.612;37.698;2023-05-19T14:44:15;100525.56;;;25.02
75428;BMP280;64008;55.612;37.698;2023-05-19T14:46:40;100537.34;;;25.06
75428;BMP280;64008;55.612;37.698;2023-05-19T14:49:06;100522.75;;;25.07
75428;BMP280;64008;55.612;37.698;2023-05-19T14:51:31;100521.13;;;25.06
75428;BMP280;64008;55.612;37.698;2023-05-19T14:53:57;100530.03;;;25.07
75428;BMP280;64008;55.612;37.698;2023-05-19T14:56:22;100524.00;;;25.10
75428;BMP280;64008;55.612;37.698;2023-05-19T15:01:13;100515.72;;;25.06
75428;BMP280;64008;55.612;37.698;2023-05-19T15:03:39;100521.13;;;25.06
75428;BMP280;64008;55.612;37.698;2023-05-19T15:06:08;100524.16;;;25.05
75428;BMP280;64008;55.612;37.698;2023-05-19T15:08:35;100513.19;;;25.10
75428;BMP280;64008;55.612;37.698;2023-05-19T15:15:53;100505.06;;;25.10
75428;BMP280;64008;55.612;37.698;2023-05-19T15:18:19;100522.44;;;25.09
75428;BMP280;64008;55.612;37.698;2023-05-19T15:20:45;100529.75;;;25.08
75428;BMP280;64008;55.612;37.698;2023-05-19T15:23:11;100533.91;;;25.14
75428;BMP280;64008;55.612;37.698;2023-05-19T15:25:36;100528.66;;;25.18
75428;BMP280;64008;55.612;37.698;2023-05-19T15:28:02;100531.66;;;25.16
75428;BMP280;64008;55.612;37.698;2023-05-19T15:30:28;100521.03;;;25.20
75428;BMP280;64008;55.612;37.698;2023-05-19T15:32:53;100530.28;;;25.19
75428;BMP280;64008;55.612;37.698;2023-05-19T15:35:19;100523.25;;;25.18
75428;BMP280;64008;55.612;37.698;2023-05-19T15:37:45;100523.25;;;25.18
75428;BMP280;64008;55.612;37.698;2023-05-19T15:40:10;100524.19;;;25.13
75428;BMP280;64008;55.612;37.698;2023-05-19T15:42:36;100523.56;;;25.16
75428;BMP280;64008;55.612;37.698;2023-05-19T15:45:02;100525.00;;;25.14
75428;BMP280;64008;55.612;37.698;2023-05-19T15:47:27;100532.34;;;25.22
75428;BMP280;64008;55.612;37.698;2023-05-19T15:52:18;100532.81;;;25.24
75428;BMP280;64008;55.612;37.698;2023-05-19T15:54:44;100522.00;;;25.24
75428;BMP280;64008;55.612;37.698;2023-05-19T15:59:35;100530.56;;;25.17
75428;BMP280;64008;55.612;37.698;2023-05-19T16:02:00;100529.91;;;25.12
75428;BMP280;64008;55.612;37.698;2023-05-19T16:04:26;100533.38;;;25.04
75428;BMP280;64008;55.612;37.698;2023-05-19T16:06:51;100525.75;;;25.06
75428;BMP280;64008;55.612;37.698;2023-05-19T16:09:17;100537.97;;;25.03
75428;BMP280;64008;55.612;37.698;2023-05-19T16:11:42;100535.09;;;24.99
75428;BMP280;64008;55.612;37.698;2023-05-19T16:14:08;100548.81;;;25.03
75428;BMP280;64008;55.612;37.698;2023-05-19T16:16:33;100532.41;;;24.99
75428;BMP280;64008;55.612;37.698;2023-05-19T16:18:59;100548.94;;;24.98
75428;BMP280;64008;55.612;37.698;2023-05-19T16:21:24;100539.84;;;24.94
75428;BMP280;64008;55.612;37.698;2023-05-19T16:23:50;100538.06;;;24.89
75428;BMP280;64008;55.612;37.698;2023-05-19T16:26:15;100538.50;;;24.83
75428;BMP280;64008;55.612;37.698;2023-05-19T16:31:06;100540.72;;;24.81
75428;BMP280;64008;55.612;37.698;2023-05-19T16:33:32;100532.31;;;24.82
75428;BMP280;64008;55.612;37.698;2023-05-19T16:35:57;100538.31;;;24.79
75428;BMP280;64008;55.612;37.698;2023-05-19T16:38:24;100541.94;;;24.74
75428;BMP280;64008;55.612;37.698;2023-05-19T16:40:50;100545.16;;;24.76
75428;BMP280;64008;55.612;37.698;2023-05-19T16:43:16;100551.19;;;24.73
75428;BMP280;64008;55.612;37.698;2023-05-19T16:45:41;100544.47;;;24.71
75428;BMP280;64008;55.612;37.698;2023-05-19T16:48:07;100550.38;;;24.73
75428;BMP280;64008;55.612;37.698;2023-05-19T16:50:33;100551.78;;;24.70
75428;BMP280;64008;55.612;37.698;2023-05-19T16:52:58;100545.97;;;24.77
75428;BMP280;64008;55.612;37.698;2023-05-19T16:55:24;100556.16;;;24.80
75428;BMP280;64008;55.612;37.698;2023-05-19T16:57:50;100560.63;;;24.85
75428;BMP280;64008;55.612;37.698;2023-05-19T17:00:16;100556.50;;;24.87
75428;BMP280;64008;55.612;37.698;2023-05-19T17:02:42;100555.91;;;24.90
75428;BMP280;64008;55.612;37.698;2023-05-19T17:05:07;100558.88;;;24.89
75428;BMP280;64008;55.612;37.698;2023-05-19T17:07:33;100561.13;;;24.87
75428;BMP280;64008;55.612;37.698;2023-05-19T17:09:58;100565.09;;;24.89
75428;BMP280;64008;55.612;37.698;2023-05-19T17:12:24;100567.31;;;24.87
75428;BMP280;64008;55.612;37.698;2023-05-19T17:14:49;100568.06;;;24.79
75428;BMP280;64008;55.612;37.698;2023-05-19T17:17:16;100592.66;;;24.69
75428;BMP280;64008;55.612;37.698;2023-05-19T17:19:42;100574.63;;;24.64
75428;BMP280;64008;55.612;37.698;2023-05-19T17:22:07;100566.06;;;24.62
75428;BMP280;64008;55.612;37.698;2023-05-19T17:24:33;100578.84;;;24.57
75428;BMP280;64008;55.612;37.698;2023-05-19T17:26:59;100575.19;;;24.52
75428;BMP280;64008;55.612;37.698;2023-05-19T17:29:25;100581.69;;;24.51